createdAt,value
2019-05-14T00:00:04.139Z,4.58
2019-05-14T00:03:12.350Z,4.62
2019-05-14T00:06:18.932Z,4.65
2019-05-14T00:09:25.190Z,4.58
2019-05-14T00:12:31.768Z,4.58
2019-05-14T00:15:38.034Z,4.51
2019-05-14T00:18:44.611Z,4.67
2019-05-14T00:21:51.399Z,4.57
2019-05-14T00:24:57.955Z,4.50
2019-05-14T00:28:04.294Z,4.59
2019-05-14T00:31:12.101Z,4.47
2019-05-14T00:34:21.503Z,4.43
2019-05-14T00:37:28.049Z,4.38
2019-05-14T00:40:34.510Z,4.44
2019-05-14T00:43:41.587Z,4.41
2019-05-14T00:46:51.450Z,4.45
2019-05-14T00:49:57.280Z,4.36
2019-05-14T00:53:03.627Z,4.35
2019-05-14T00:56:11.049Z,4.30
2019-05-14T00:59:17.603Z,4.27
2019-05-14T01:02:24.148Z,4.11
2019-05-14T01:05:32.210Z,4.02
2019-05-14T01:08:38.669Z,3.97
2019-05-14T01:11:45.876Z,4.05
2019-05-14T01:15:06.946Z,3.96
2019-05-14T01:18:02.213Z,3.82
2019-05-14T01:21:11.685Z,4.02
2019-05-14T01:24:18.109Z,4.01
2019-05-14T01:27:24.537Z,3.90
2019-05-14T01:30:31.981Z,3.84
2019-05-14T01:33:40.942Z,4.04
2019-05-14T01:36:47.195Z,3.91
2019-05-14T01:39:53.747Z,3.96
2019-05-14T01:43:02.394Z,4.04
2019-05-14T01:46:08.373Z,3.94
2019-05-14T01:49:16.408Z,4.11
2019-05-14T01:52:22.837Z,4.05
2019-05-14T01:55:29.084Z,4.00
2019-05-14T01:58:35.645Z,3.97
2019-05-14T02:01:42.075Z,4.03
2019-05-14T02:04:48.516Z,4.01
2019-05-14T02:07:54.888Z,3.96
2019-05-14T02:11:01.853Z,4.04
2019-05-14T02:14:08.422Z,4.13
2019-05-14T02:17:15.119Z,4.18
2019-05-14T02:20:21.729Z,4.15
2019-05-14T02:23:28.079Z,4.15
2019-05-14T02:26:34.507Z,4.15
2019-05-14T02:29:41.860Z,4.13
2019-05-14T02:32:49.855Z,4.17
2019-05-14T02:35:59.905Z,4.08
2019-05-14T02:39:10.064Z,4.09
2019-05-14T02:42:15.262Z,4.00
2019-05-14T02:45:21.738Z,4.04
2019-05-14T02:48:29.253Z,4.03
2019-05-14T02:51:38.923Z,3.94
2019-05-14T02:54:44.016Z,4.00
2019-05-14T02:57:50.392Z,4.07
2019-05-14T03:01:00.077Z,4.09
2019-05-14T03:04:04.912Z,4.05
2019-05-14T03:07:11.600Z,4.09
2019-05-14T03:10:19.423Z,4.10
2019-05-14T03:13:29.286Z,4.07
2019-05-14T03:16:35.879Z,4.13
2019-05-14T03:19:42.555Z,4.15
2019-05-14T03:23:02.538Z,4.16
2019-05-14T03:26:00.375Z,4.31
2019-05-14T03:29:09.596Z,4.39
2019-05-14T03:32:15.134Z,4.47
2019-05-14T03:35:24.778Z,4.55
2019-05-14T03:38:30.078Z,4.60
2019-05-14T03:41:39.385Z,4.69
2019-05-14T03:44:44.617Z,4.73
2019-05-14T03:47:51.156Z,4.78
2019-05-14T03:51:00.107Z,4.85
2019-05-14T03:54:11.310Z,4.87
2019-05-14T03:57:14.780Z,4.88
2019-05-14T04:00:39.026Z,4.91
2019-05-14T04:03:45.547Z,4.95
2019-05-14T04:06:52.011Z,5.01
2019-05-14T04:09:59.592Z,5.08
2019-05-14T04:13:08.970Z,5.14
2019-05-14T04:16:15.536Z,5.22
2019-05-14T04:19:24.057Z,5.25
2019-05-14T04:22:32.855Z,5.24
2019-05-14T04:25:39.762Z,5.18
2019-05-14T04:28:50.896Z,5.10
2019-05-14T04:32:00.194Z,5.17
2019-05-14T04:35:09.581Z,5.19
2019-05-14T04:38:14.796Z,5.24
2019-05-14T04:41:21.759Z,5.22
2019-05-14T04:44:29.680Z,5.29
2019-05-14T04:47:40.967Z,5.44
2019-05-14T04:50:45.556Z,5.43
2019-05-14T04:53:51.947Z,5.38
2019-05-14T04:56:59.987Z,5.39
2019-05-14T05:00:07.109Z,5.37
2019-05-14T05:03:21.470Z,5.49
2019-05-14T05:06:29.133Z,5.46
2019-05-14T05:09:35.768Z,5.54
2019-05-14T05:12:42.107Z,5.56
2019-05-14T05:15:48.801Z,5.67
2019-05-14T05:18:55.340Z,5.71
2019-05-14T05:22:02.781Z,5.70
2019-05-14T05:25:09.832Z,5.76
2019-05-14T05:28:16.189Z,5.75
2019-05-14T05:31:22.708Z,5.80
2019-05-14T05:34:29.139Z,5.93
2019-05-14T05:37:38.292Z,6.05
2019-05-14T05:40:43.823Z,6.06
2019-05-14T05:43:50.210Z,6.13
2019-05-14T05:46:56.559Z,6.19
2019-05-14T05:50:02.839Z,6.19
2019-05-14T05:53:09.258Z,6.20
2019-05-14T05:56:18.457Z,6.34
2019-05-14T05:59:24.026Z,6.38
2019-05-14T06:02:30.386Z,6.41
2019-05-14T06:05:38.891Z,6.45
2019-05-14T06:08:44.969Z,6.48
2019-05-14T06:11:52.882Z,6.50
2019-05-14T06:14:59.311Z,6.56
2019-05-14T06:18:15.274Z,6.57
2019-05-14T06:21:14.197Z,6.57
2019-05-14T06:24:20.635Z,6.72
2019-05-14T06:27:28.781Z,6.74
2019-05-14T06:30:39.720Z,6.78
2019-05-14T06:33:48.676Z,6.83
2019-05-14T06:36:54.422Z,6.87
2019-05-14T06:40:00.822Z,6.97
2019-05-14T06:43:09.162Z,6.93
2019-05-14T06:46:15.887Z,7.17
2019-05-14T06:49:22.223Z,7.14
2019-05-14T06:52:29.235Z,7.22
2019-05-14T06:55:35.817Z,7.28
2019-05-14T06:58:42.211Z,7.39
2019-05-14T07:01:49.102Z,7.45
2019-05-14T07:04:55.486Z,7.49
2019-05-14T07:08:01.855Z,7.63
2019-05-14T07:11:08.712Z,7.70
2019-05-14T07:14:15.299Z,7.76
2019-05-14T07:17:21.747Z,7.78
2019-05-14T07:20:29.134Z,7.84
2019-05-14T07:23:38.209Z,7.96
2019-05-14T07:26:43.734Z,8.09
2019-05-14T07:29:50.756Z,8.20
2019-05-14T07:32:58.875Z,8.36
2019-05-14T07:36:05.378Z,8.42
2019-05-14T07:39:11.642Z,8.60
2019-05-14T07:42:18.423Z,8.74
2019-05-14T07:45:24.938Z,8.95
2019-05-14T07:48:31.402Z,9.15
2019-05-14T07:51:38.804Z,9.33
2019-05-14T07:54:45.255Z,9.84
2019-05-14T07:57:51.947Z,9.92
2019-05-14T08:00:58.753Z,10.34
2019-05-14T08:04:05.287Z,10.54
2019-05-14T08:07:11.702Z,10.54
2019-05-14T08:10:18.692Z,11.41
2019-05-14T08:13:28.198Z,11.15
2019-05-14T08:16:34.219Z,11.61
2019-05-14T08:19:40.691Z,11.68
2019-05-14T08:22:49.007Z,11.39
2019-05-14T08:25:55.551Z,11.20
2019-05-14T08:29:02.709Z,10.95
2019-05-14T08:32:09.375Z,11.00
2019-05-14T08:35:15.818Z,11.89
2019-05-14T08:38:22.152Z,11.89
2019-05-14T08:41:28.944Z,12.31
2019-05-14T08:44:35.530Z,12.45
2019-05-14T08:47:41.919Z,13.25
2019-05-14T08:50:48.420Z,13.11
2019-05-14T08:53:54.791Z,13.88
2019-05-14T08:57:01.111Z,14.43
2019-05-14T09:00:13.922Z,14.24
2019-05-14T09:03:19.069Z,14.52
2019-05-14T09:06:24.430Z,14.40
2019-05-14T09:09:30.936Z,14.31
2019-05-14T09:12:38.774Z,14.31
2019-05-14T09:15:48.708Z,14.82
2019-05-14T09:18:54.587Z,15.16
2019-05-14T09:22:01.199Z,15.03
2019-05-14T09:25:08.543Z,15.47
2019-05-14T09:28:14.985Z,14.63
2019-05-14T09:31:21.311Z,13.85
2019-05-14T09:34:28.974Z,14.98
2019-05-14T09:37:35.587Z,15.54
2019-05-14T09:40:42.132Z,15.14
2019-05-14T09:43:48.982Z,15.59
2019-05-14T09:46:55.424Z,15.94
2019-05-14T09:50:14.996Z,15.60
2019-05-14T09:53:10.106Z,15.24
2019-05-14T09:56:18.703Z,15.35
2019-05-14T09:59:24.505Z,15.31
2019-05-14T10:02:31.147Z,15.85
2019-05-14T10:05:37.957Z,16.72
2019-05-14T10:08:44.583Z,17.14
2019-05-14T10:11:51.060Z,16.26
2019-05-14T10:14:59.225Z,15.85
2019-05-14T10:18:11.021Z,16.64
2019-05-14T10:21:14.027Z,15.92
2019-05-14T10:24:20.788Z,15.73
2019-05-14T10:27:28.400Z,14.29
2019-05-14T10:30:34.928Z,15.69
2019-05-14T10:33:41.267Z,16.55
2019-05-14T10:36:47.881Z,16.69
2019-05-14T10:39:54.285Z,16.51
2019-05-14T10:43:04.282Z,15.56
2019-05-14T10:46:10.689Z,15.89
2019-05-14T10:49:23.480Z,16.36
2019-05-14T10:52:25.283Z,16.67
2019-05-14T10:55:31.846Z,17.10
2019-05-14T10:58:38.161Z,17.05
2019-05-14T11:01:45.724Z,15.78
2019-05-14T11:04:52.361Z,16.99
2019-05-14T11:07:58.928Z,17.05
2019-05-14T11:11:05.330Z,17.85
2019-05-14T11:14:12.052Z,17.84
2019-05-14T11:17:19.728Z,18.34
2019-05-14T11:20:30.820Z,18.51
2019-05-14T11:23:34.504Z,17.86
2019-05-14T11:26:40.931Z,17.93
2019-05-14T11:29:49.181Z,18.09
2019-05-14T11:32:55.530Z,18.15
2019-05-14T11:36:01.985Z,17.48
2019-05-14T11:39:09.747Z,17.48
2019-05-14T11:42:16.188Z,18.97
2019-05-14T11:45:22.825Z,19.00
2019-05-14T11:48:29.277Z,19.30
2019-05-14T11:51:58.968Z,19.85
2019-05-14T11:54:44.047Z,19.61
2019-05-14T11:57:50.627Z,19.09
2019-05-14T12:00:58.427Z,18.92
2019-05-14T12:04:05.180Z,19.32
2019-05-14T12:07:11.939Z,19.19
2019-05-14T12:10:19.018Z,18.44
2019-05-14T12:13:29.889Z,19.15
2019-05-14T12:16:34.023Z,18.91
2019-05-14T12:19:43.580Z,19.74
2019-05-14T12:22:48.993Z,19.03
2019-05-14T12:25:55.434Z,19.16
2019-05-14T12:29:02.925Z,20.38
2019-05-14T12:32:12.875Z,18.56
2019-05-14T12:35:19.771Z,19.69
2019-05-14T12:38:25.734Z,20.84
2019-05-14T12:41:33.388Z,19.75
2019-05-14T12:44:40.843Z,20.42
2019-05-14T12:47:50.041Z,20.56
2019-05-14T12:50:55.713Z,19.74
2019-05-14T12:54:02.928Z,18.38
2019-05-14T12:57:09.296Z,18.37
2019-05-14T13:00:15.939Z,19.53
2019-05-14T13:03:22.278Z,20.54
2019-05-14T13:06:29.434Z,19.28
2019-05-14T13:09:38.342Z,19.28
2019-05-14T13:12:44.326Z,19.75
2019-05-14T13:15:50.751Z,19.04
2019-05-14T13:18:59.734Z,17.97
2019-05-14T13:22:13.533Z,18.58
2019-05-14T13:25:13.598Z,18.90
2019-05-14T13:28:20.196Z,19.28
2019-05-14T13:31:29.004Z,17.09
2019-05-14T13:34:34.739Z,17.83
2019-05-14T13:37:41.159Z,17.26
2019-05-14T13:40:49.180Z,17.94
2019-05-14T13:43:58.698Z,17.80
2019-05-14T13:47:04.589Z,18.96
2019-05-14T13:50:11.887Z,19.83
2019-05-14T13:53:18.938Z,19.18
2019-05-14T13:56:25.685Z,19.75
2019-05-14T13:59:32.052Z,19.27
2019-05-14T14:02:38.613Z,19.80
2019-05-14T14:05:45.078Z,20.64
2019-05-14T14:08:51.555Z,18.98
2019-05-14T14:11:58.741Z,19.14
2019-05-14T14:15:09.201Z,19.99
2019-05-14T14:18:14.431Z,20.32
2019-05-14T14:21:21.012Z,19.18
2019-05-14T14:24:29.059Z,19.86
2019-05-14T14:27:39.970Z,20.36
2019-05-14T14:30:44.332Z,19.66
2019-05-14T14:33:50.779Z,18.98
2019-05-14T14:36:59.272Z,18.52
2019-05-14T14:40:09.321Z,18.23
2019-05-14T14:43:14.501Z,18.14
2019-05-14T14:46:21.219Z,17.28
2019-05-14T14:49:28.130Z,16.58
2019-05-14T14:52:34.983Z,17.20
2019-05-14T14:55:41.344Z,16.61
2019-05-14T14:58:49.303Z,16.58
2019-05-14T15:01:59.389Z,16.23
2019-05-14T15:05:09.801Z,16.14
2019-05-14T15:08:12.975Z,15.84
2019-05-14T15:11:19.322Z,16.04
2019-05-14T15:14:29.507Z,15.61
2019-05-14T15:17:34.234Z,15.89
2019-05-14T15:20:40.571Z,15.80
2019-05-14T15:24:02.993Z,15.75
2019-05-14T15:26:55.195Z,15.75
2019-05-14T15:30:01.901Z,15.51
2019-05-14T15:33:09.431Z,15.31
2019-05-14T15:36:15.961Z,14.93
2019-05-14T15:39:22.650Z,14.60
2019-05-14T15:42:29.434Z,14.90
2019-05-14T15:45:37.876Z,14.65
2019-05-14T15:48:44.307Z,14.07
2019-05-14T15:51:50.722Z,13.85
2019-05-14T15:54:57.268Z,13.53
2019-05-14T15:58:03.725Z,13.24
2019-05-14T16:01:11.247Z,13.46
2019-05-14T16:04:20.647Z,13.36
2019-05-14T16:07:29.151Z,13.57
2019-05-14T16:10:34.426Z,13.34
2019-05-14T16:13:41.016Z,13.56
2019-05-14T16:16:48.707Z,13.48
2019-05-14T16:19:55.377Z,12.86
2019-05-14T16:23:04.152Z,12.75
2019-05-14T16:26:10.559Z,12.64
2019-05-14T16:29:19.227Z,12.56
2019-05-14T16:32:25.066Z,12.27
2019-05-14T16:35:31.516Z,12.02
2019-05-14T16:38:39.544Z,11.95
2019-05-14T16:41:48.861Z,11.75
2019-05-14T16:44:54.709Z,11.91
2019-05-14T16:48:01.048Z,11.71
2019-05-14T16:51:08.965Z,11.59
2019-05-14T16:54:18.092Z,11.62
2019-05-14T16:57:23.748Z,11.60
2019-05-14T17:00:30.136Z,11.36
2019-05-14T17:03:39.287Z,11.44
2019-05-14T17:06:44.794Z,11.11
2019-05-14T17:09:51.256Z,11.28
2019-05-14T17:13:01.584Z,11.24
2019-05-14T17:16:05.504Z,11.06
2019-05-14T17:19:12.080Z,10.90
2019-05-14T17:22:28.511Z,10.94
2019-05-14T17:25:30.403Z,10.81
2019-05-14T17:28:37.620Z,10.72
2019-05-14T17:31:43.673Z,10.51
2019-05-14T17:34:51.530Z,10.48
2019-05-14T17:37:58.811Z,10.59
2019-05-14T17:41:05.277Z,10.42
2019-05-14T17:44:11.682Z,10.42
2019-05-14T17:47:18.524Z,10.38
2019-05-14T17:50:25.081Z,10.38
2019-05-14T17:53:31.673Z,10.25
2019-05-14T17:56:39.042Z,10.02
2019-05-14T17:59:45.734Z,9.92
2019-05-14T18:02:52.149Z,10.17
2019-05-14T18:06:01.016Z,9.94
2019-05-14T18:09:09.089Z,9.67
2019-05-14T18:12:18.511Z,9.67
2019-05-14T18:15:23.965Z,9.74
2019-05-14T18:18:31.691Z,9.72
2019-05-14T18:21:39.008Z,9.48
2019-05-14T18:24:45.622Z,9.48
2019-05-14T18:27:52.296Z,9.46
2019-05-14T18:30:58.958Z,9.42
2019-05-14T18:34:05.788Z,9.35
2019-05-14T18:37:18.176Z,9.31
2019-05-14T18:40:28.110Z,9.36
2019-05-14T18:43:34.744Z,9.25
2019-05-14T18:46:41.192Z,9.33
2019-05-14T18:49:49.315Z,9.25
2019-05-14T18:52:55.750Z,9.15
2019-05-14T18:56:16.608Z,9.11
2019-05-14T18:59:10.611Z,8.96
2019-05-14T19:02:18.446Z,8.90
2019-05-14T19:05:24.968Z,8.87
2019-05-14T19:08:31.318Z,9.02
2019-05-14T19:11:38.713Z,8.94
2019-05-14T19:14:45.352Z,8.80
2019-05-14T19:17:51.759Z,8.85
2019-05-14T19:20:59.228Z,8.73
2019-05-14T19:24:08.987Z,8.61
2019-05-14T19:27:15.143Z,8.66
2019-05-14T19:30:21.552Z,8.63
2019-05-14T19:33:30.850Z,8.60
2019-05-14T19:36:39.754Z,8.44
2019-05-14T19:39:47.923Z,8.38
2019-05-14T19:42:53.839Z,8.38
2019-05-14T19:46:00.225Z,8.32
2019-05-14T19:49:08.151Z,8.20
2019-05-14T19:52:14.906Z,8.15
2019-05-14T19:55:21.224Z,8.00
2019-05-14T19:58:29.490Z,7.96
2019-05-14T20:01:38.389Z,7.76
2019-05-14T20:04:45.027Z,7.79
2019-05-14T20:07:51.809Z,7.90
2019-05-14T20:11:00.967Z,7.82
2019-05-14T20:14:07.516Z,7.77
2019-05-14T20:17:15.603Z,7.72
2019-05-14T20:20:25.688Z,7.75
2019-05-14T20:23:38.701Z,7.72
2019-05-14T20:26:48.618Z,7.70
2019-05-14T20:29:58.097Z,7.37
2019-05-14T20:33:08.542Z,7.51
2019-05-14T20:36:15.078Z,7.44
2019-05-14T20:39:22.655Z,7.30
2019-05-14T20:42:29.147Z,7.25
2019-05-14T20:45:35.534Z,7.33
2019-05-14T20:48:41.945Z,7.28
2019-05-14T20:51:49.467Z,7.22
2019-05-14T20:54:57.907Z,7.30
2019-05-14T20:58:05.316Z,7.11
2019-05-14T21:01:12.043Z,7.23
2019-05-14T21:04:19.028Z,6.95
2019-05-14T21:07:28.897Z,6.95
2019-05-14T21:10:34.913Z,7.03
2019-05-14T21:13:41.442Z,6.92
2019-05-14T21:16:48.853Z,6.87
2019-05-14T21:19:55.979Z,6.98
2019-05-14T21:23:02.302Z,6.94
2019-05-14T21:26:08.782Z,6.80
2019-05-14T21:29:16.899Z,6.83
2019-05-14T21:32:23.459Z,6.80
2019-05-14T21:35:29.801Z,6.73
2019-05-14T21:38:37.949Z,6.67
2019-05-14T21:41:44.340Z,6.66
2019-05-14T21:44:51.527Z,6.67
2019-05-14T21:47:59.462Z,6.56
2019-05-14T21:51:08.518Z,6.53
2019-05-14T21:54:14.082Z,6.62
2019-05-14T21:57:20.492Z,6.56
2019-05-14T22:00:34.768Z,6.70
2019-05-14T22:03:43.309Z,6.68
2019-05-14T22:06:49.654Z,6.45
2019-05-14T22:09:58.242Z,6.45
2019-05-14T22:13:04.090Z,6.48
2019-05-14T22:16:10.373Z,6.43
2019-05-14T22:19:18.884Z,6.49
2019-05-14T22:22:25.030Z,6.37
2019-05-14T22:25:31.423Z,6.39
2019-05-14T22:28:37.776Z,6.46
2019-05-14T22:31:44.397Z,6.58
2019-05-14T22:34:50.975Z,6.58
2019-05-14T22:37:59.504Z,6.51
2019-05-14T22:41:08.688Z,6.45
2019-05-14T22:44:14.826Z,6.57
2019-05-14T22:47:21.302Z,6.50
2019-05-14T22:50:29.387Z,6.34
2019-05-14T22:53:35.694Z,6.39
2019-05-14T22:56:42.153Z,6.44
2019-05-14T22:59:48.745Z,6.35
2019-05-14T23:02:56.019Z,6.40
2019-05-14T23:06:02.664Z,6.42
2019-05-14T23:09:09.194Z,6.39
2019-05-14T23:12:15.761Z,6.27
2019-05-14T23:15:22.012Z,6.32
2019-05-14T23:18:28.811Z,6.29
2019-05-14T23:21:35.203Z,6.24
2019-05-14T23:24:41.553Z,6.27
2019-05-14T23:27:48.364Z,6.27
2019-05-14T23:30:55.059Z,6.27
2019-05-14T23:34:01.493Z,6.36
2019-05-14T23:37:08.983Z,6.17
2019-05-14T23:40:15.307Z,6.19
2019-05-14T23:43:21.799Z,6.31
2019-05-14T23:46:29.148Z,6.30
2019-05-14T23:49:35.814Z,6.40
2019-05-14T23:52:42.165Z,6.41
2019-05-14T23:55:48.490Z,6.28
2019-05-14T23:59:01.102Z,6.33
